createdAt,value
2018-09-26T00:02:23.985Z,3.20
2018-09-26T00:04:59.301Z,3.10
2018-09-26T00:07:34.488Z,3.10
2018-09-26T00:10:09.545Z,3.10
2018-09-26T00:12:44.988Z,3.00
2018-09-26T00:15:20.477Z,3.10
2018-09-26T00:17:55.398Z,3.00
2018-09-26T00:20:30.503Z,3.00
2018-09-26T00:23:05.890Z,3.00
2018-09-26T00:25:41.105Z,3.10
2018-09-26T00:28:17.132Z,2.90
2018-09-26T00:30:53.224Z,2.90
2018-09-26T00:33:29.890Z,2.80
2018-09-26T00:36:05.298Z,2.70
2018-09-26T00:38:40.125Z,2.70
2018-09-26T00:41:16.091Z,2.60
2018-09-26T00:43:51.010Z,2.60
2018-09-26T00:46:26.108Z,2.50
2018-09-26T00:49:01.121Z,2.40
2018-09-26T00:51:39.639Z,2.40
2018-09-26T00:54:15.824Z,2.50
2018-09-26T00:56:54.397Z,2.50
2018-09-26T00:59:29.111Z,2.40
2018-09-26T01:02:03.941Z,2.40
2018-09-26T01:04:38.478Z,2.40
2018-09-26T01:07:13.264Z,2.40
2018-09-26T01:09:48.241Z,2.20
2018-09-26T01:12:22.704Z,2.10
2018-09-26T01:14:57.290Z,2.20
2018-09-26T01:17:31.755Z,2.20
2018-09-26T01:20:06.477Z,2.20
2018-09-26T01:22:40.974Z,2.20
2018-09-26T01:25:15.777Z,2.20
2018-09-26T01:27:50.319Z,2.20
2018-09-26T01:30:24.872Z,2.10
2018-09-26T01:32:59.559Z,2.00
2018-09-26T01:35:33.949Z,2.00
2018-09-26T01:38:08.584Z,2.00
2018-09-26T01:40:43.152Z,1.90
2018-09-26T01:43:17.998Z,1.90
2018-09-26T01:45:52.572Z,1.90
2018-09-26T01:48:27.097Z,1.80
2018-09-26T01:51:01.703Z,1.80
2018-09-26T01:53:36.114Z,1.80
2018-09-26T01:56:10.839Z,1.80
2018-09-26T01:58:45.629Z,1.80
2018-09-26T02:01:20.334Z,1.80
2018-09-26T02:03:54.739Z,1.80
2018-09-26T02:06:29.202Z,1.90
2018-09-26T02:09:05.875Z,1.80
2018-09-26T02:11:40.461Z,1.70
2018-09-26T02:14:15.350Z,1.70
2018-09-26T02:16:49.766Z,1.60
2018-09-26T02:19:24.312Z,1.60
2018-09-26T02:21:58.861Z,1.60
2018-09-26T02:24:34.259Z,1.60
2018-09-26T02:27:08.801Z,1.60
2018-09-26T02:29:43.389Z,1.50
2018-09-26T02:32:18.053Z,1.50
2018-09-26T02:34:52.498Z,1.40
2018-09-26T02:37:27.175Z,1.40
2018-09-26T02:40:01.731Z,1.40
2018-09-26T02:42:36.158Z,1.40
2018-09-26T02:45:10.708Z,1.30
2018-09-26T02:47:45.160Z,1.40
2018-09-26T02:50:19.720Z,1.30
2018-09-26T02:52:54.239Z,1.30
2018-09-26T02:55:28.856Z,1.20
2018-09-26T02:58:03.438Z,1.20
2018-09-26T03:00:38.054Z,1.20
2018-09-26T03:03:12.656Z,1.20
2018-09-26T03:05:47.246Z,1.20
2018-09-26T03:08:21.773Z,1.20
2018-09-26T03:10:56.738Z,1.10
2018-09-26T03:13:31.288Z,1.10
2018-09-26T03:16:05.981Z,1.10
2018-09-26T03:18:40.332Z,1.10
2018-09-26T03:21:14.609Z,1.10
2018-09-26T03:23:48.995Z,1.20
2018-09-26T03:26:23.705Z,1.10
2018-09-26T03:28:58.321Z,1.00
2018-09-26T03:31:33.026Z,0.90
2018-09-26T03:34:07.769Z,0.90
2018-09-26T03:36:42.275Z,0.90
2018-09-26T03:39:17.207Z,0.90
2018-09-26T03:41:51.856Z,0.90
2018-09-26T03:44:26.411Z,1.00
2018-09-26T03:47:01.067Z,1.10
2018-09-26T03:49:35.468Z,1.00
2018-09-26T03:52:10.399Z,0.90
2018-09-26T03:54:45.045Z,0.80
2018-09-26T03:57:19.679Z,0.60
2018-09-26T03:59:54.283Z,0.60
2018-09-26T04:02:29.494Z,0.60
2018-09-26T04:05:04.542Z,0.70
2018-09-26T04:07:39.146Z,0.70
2018-09-26T04:10:15.057Z,0.70
2018-09-26T04:12:49.839Z,0.70
2018-09-26T04:15:24.308Z,0.70
2018-09-26T04:17:59.314Z,0.80
2018-09-26T04:20:33.793Z,0.70
2018-09-26T04:23:08.390Z,0.70
2018-09-26T04:25:42.806Z,0.50
2018-09-26T04:28:17.475Z,0.50
2018-09-26T04:30:52.230Z,0.50
2018-09-26T04:33:26.554Z,0.50
2018-09-26T04:36:01.436Z,0.60
2018-09-26T04:38:36.016Z,0.50
2018-09-26T04:41:10.658Z,0.50
2018-09-26T04:43:45.170Z,0.60
2018-09-26T04:46:19.938Z,0.60
2018-09-26T04:48:54.588Z,0.60
2018-09-26T04:51:29.349Z,0.60
2018-09-26T04:54:04.075Z,0.60
2018-09-26T04:56:38.767Z,0.50
2018-09-26T04:59:13.279Z,0.50
2018-09-26T05:01:47.840Z,0.50
2018-09-26T05:04:22.265Z,0.40
2018-09-26T05:07:01.405Z,0.50
2018-09-26T05:09:36.265Z,0.50
2018-09-26T05:12:11.034Z,0.40
2018-09-26T05:14:45.651Z,0.50
2018-09-26T05:17:20.201Z,0.60
2018-09-26T05:19:54.588Z,0.50
2018-09-26T05:22:29.267Z,0.40
2018-09-26T05:25:03.580Z,0.30
2018-09-26T05:27:37.987Z,0.30
2018-09-26T05:30:12.638Z,0.40
2018-09-26T05:32:47.369Z,0.40
2018-09-26T05:35:21.874Z,0.40
2018-09-26T05:37:56.733Z,0.50
2018-09-26T05:40:31.380Z,0.40
2018-09-26T05:43:05.870Z,0.40
2018-09-26T05:45:40.574Z,0.40
2018-09-26T05:48:15.057Z,0.50
2018-09-26T05:50:49.635Z,0.50
2018-09-26T05:53:24.224Z,0.50
2018-09-26T05:55:58.739Z,0.50
2018-09-26T05:58:33.540Z,0.60
2018-09-26T06:01:08.346Z,0.60
2018-09-26T06:03:42.818Z,0.70
2018-09-26T06:06:17.320Z,0.80
2018-09-26T06:08:51.796Z,0.90
2018-09-26T06:11:26.361Z,1.00
2018-09-26T06:14:00.760Z,1.10
2018-09-26T06:16:35.406Z,1.20
2018-09-26T06:19:10.525Z,1.30
2018-09-26T06:21:45.044Z,1.40
2018-09-26T06:24:19.437Z,1.50
2018-09-26T06:26:53.994Z,1.70
2018-09-26T06:29:28.454Z,1.70
2018-09-26T06:32:03.146Z,1.90
2018-09-26T06:34:38.114Z,2.10
2018-09-26T06:37:12.473Z,2.30
2018-09-26T06:39:47.007Z,2.50
2018-09-26T06:42:21.504Z,2.60
2018-09-26T06:44:55.884Z,2.70
2018-09-26T06:47:30.391Z,2.80
2018-09-26T06:50:05.261Z,3.00
2018-09-26T06:52:39.779Z,3.10
2018-09-26T06:55:14.447Z,3.20
2018-09-26T06:57:49.082Z,3.50
2018-09-26T07:00:23.711Z,3.60
2018-09-26T07:02:58.433Z,3.70
2018-09-26T07:05:32.796Z,3.90
2018-09-26T07:08:07.342Z,4.10
2018-09-26T07:10:41.941Z,4.30
2018-09-26T07:13:16.768Z,4.40
2018-09-26T07:15:51.711Z,4.60
2018-09-26T07:18:26.190Z,4.80
2018-09-26T07:21:00.689Z,5.10
2018-09-26T07:23:35.040Z,5.30
2018-09-26T07:26:09.437Z,5.50
2018-09-26T07:28:43.990Z,5.70
2018-09-26T07:31:18.629Z,5.90
2018-09-26T07:33:53.131Z,6.40
2018-09-26T07:36:27.674Z,6.80
2018-09-26T07:39:02.280Z,7.10
2018-09-26T07:41:37.018Z,7.40
2018-09-26T07:44:11.282Z,7.90
2018-09-26T07:46:45.746Z,8.40
2018-09-26T07:49:20.176Z,8.70
2018-09-26T07:51:54.656Z,8.70
2018-09-26T07:54:29.166Z,8.90
2018-09-26T07:57:03.782Z,9.00
2018-09-26T07:59:38.090Z,9.30
2018-09-26T08:02:12.836Z,9.60
2018-09-26T08:04:47.350Z,9.90
2018-09-26T08:07:21.988Z,10.20
2018-09-26T08:09:56.565Z,10.30
2018-09-26T08:12:31.070Z,10.70
2018-09-26T08:15:05.591Z,11.00
2018-09-26T08:17:40.111Z,11.30
2018-09-26T08:20:14.977Z,11.30
2018-09-26T08:22:49.564Z,11.30
2018-09-26T08:25:24.160Z,11.50
2018-09-26T08:27:58.601Z,12.30
2018-09-26T08:30:33.017Z,13.00
2018-09-26T08:33:07.490Z,13.30
2018-09-26T08:35:42.510Z,13.20
2018-09-26T08:38:17.224Z,13.30
2018-09-26T08:40:51.630Z,13.40
2018-09-26T08:43:26.197Z,13.30
2018-09-26T08:46:00.801Z,13.50
2018-09-26T08:48:35.396Z,14.00
2018-09-26T08:51:09.750Z,14.50
2018-09-26T08:53:44.360Z,14.90
2018-09-26T08:56:18.751Z,15.20
2018-09-26T08:58:53.344Z,15.20
2018-09-26T09:01:33.276Z,15.20
2018-09-26T09:04:25.798Z,14.90
2018-09-26T09:07:30.471Z,14.60
2018-09-26T09:10:05.108Z,14.70
2018-09-26T09:12:39.705Z,14.90
2018-09-26T09:15:15.283Z,14.90
2018-09-26T09:17:49.909Z,15.30
2018-09-26T09:20:24.608Z,15.50
2018-09-26T09:22:59.589Z,15.90
2018-09-26T09:25:34.083Z,16.20
2018-09-26T09:28:08.744Z,16.00
2018-09-26T09:30:43.859Z,16.10
2018-09-26T09:33:18.544Z,16.30
2018-09-26T09:35:53.127Z,16.20
2018-09-26T09:38:27.728Z,16.00
2018-09-26T09:41:02.261Z,16.40
2018-09-26T09:43:36.730Z,16.60
2018-09-26T09:46:11.235Z,17.30
2018-09-26T09:48:45.750Z,17.70
2018-09-26T09:51:20.448Z,18.20
2018-09-26T09:53:54.997Z,18.20
2018-09-26T09:56:29.497Z,17.60
2018-09-26T09:59:04.146Z,16.80
2018-09-26T10:01:38.859Z,16.60
2018-09-26T10:04:13.380Z,16.80
2018-09-26T10:06:47.954Z,17.30
2018-09-26T10:09:23.133Z,18.20
2018-09-26T10:11:58.044Z,18.60
2018-09-26T10:14:32.601Z,18.60
2018-09-26T10:17:07.941Z,18.00
2018-09-26T10:19:42.453Z,17.50
2018-09-26T10:22:17.196Z,17.00
2018-09-26T10:24:51.902Z,17.40
2018-09-26T10:27:26.457Z,18.20
2018-09-26T10:30:01.227Z,19.00
2018-09-26T10:32:35.920Z,19.70
2018-09-26T10:35:10.488Z,20.00
2018-09-26T10:37:44.896Z,19.60
2018-09-26T10:40:19.499Z,19.50
2018-09-26T10:42:54.313Z,19.50
2018-09-26T10:45:28.920Z,19.70
2018-09-26T10:48:03.426Z,19.30
2018-09-26T10:50:38.061Z,19.20
2018-09-26T10:53:12.390Z,19.10
2018-09-26T10:55:46.984Z,19.10
2018-09-26T10:58:21.789Z,18.80
2018-09-26T11:00:57.208Z,19.00
2018-09-26T11:03:32.014Z,19.50
2018-09-26T11:06:06.559Z,19.90
2018-09-26T11:08:41.209Z,20.10
2018-09-26T11:11:16.003Z,20.20
2018-09-26T11:13:50.755Z,20.70
2018-09-26T11:16:25.293Z,21.20
2018-09-26T11:18:59.758Z,21.30
2018-09-26T11:21:34.249Z,21.10
2018-09-26T11:24:08.888Z,20.80
2018-09-26T11:26:43.881Z,20.70
2018-09-26T11:29:18.256Z,20.30
2018-09-26T11:31:53.081Z,20.30
2018-09-26T11:34:27.997Z,20.90
2018-09-26T11:37:02.458Z,20.80
2018-09-26T11:39:36.909Z,21.00
2018-09-26T11:42:11.632Z,21.40
2018-09-26T11:44:46.835Z,21.60
2018-09-26T11:47:21.332Z,22.00
2018-09-26T11:49:55.882Z,22.30
2018-09-26T11:52:30.489Z,22.20
2018-09-26T11:55:05.130Z,21.90
2018-09-26T11:57:39.768Z,21.00
2018-09-26T12:00:15.095Z,20.90
2018-09-26T12:02:51.096Z,21.00
2018-09-26T12:05:25.677Z,21.30
2018-09-26T12:08:00.324Z,21.00
2018-09-26T12:10:34.870Z,20.90
2018-09-26T12:13:09.369Z,20.90
2018-09-26T12:15:43.848Z,21.30
2018-09-26T12:18:18.419Z,21.90
2018-09-26T12:20:52.878Z,21.50
2018-09-26T12:23:27.365Z,21.40
2018-09-26T12:26:02.208Z,21.50
2018-09-26T12:28:37.326Z,21.70
2018-09-26T12:31:11.883Z,22.30
2018-09-26T12:33:46.351Z,22.30
2018-09-26T12:36:20.878Z,22.50
2018-09-26T12:38:55.328Z,22.80
2018-09-26T12:41:29.823Z,23.00
2018-09-26T12:44:04.253Z,23.20
2018-09-26T12:46:38.596Z,23.30
2018-09-26T12:49:13.348Z,23.60
2018-09-26T12:51:47.998Z,23.70
2018-09-26T12:54:22.544Z,23.60
2018-09-26T12:56:57.035Z,23.30
2018-09-26T12:59:31.453Z,22.90
2018-09-26T13:02:06.121Z,22.60
2018-09-26T13:04:40.676Z,22.40
2018-09-26T13:07:15.208Z,22.60
2018-09-26T13:09:49.839Z,23.10
2018-09-26T13:12:24.430Z,23.10
2018-09-26T13:14:58.806Z,23.10
2018-09-26T13:17:33.680Z,22.90
2018-09-26T13:20:08.287Z,22.70
2018-09-26T13:22:42.720Z,22.80
2018-09-26T13:25:19.473Z,23.10
2018-09-26T13:27:53.988Z,23.70
2018-09-26T13:30:28.564Z,23.90
2018-09-26T13:33:03.155Z,23.80
2018-09-26T13:35:37.598Z,24.60
2018-09-26T13:38:12.688Z,25.80
2018-09-26T13:40:47.160Z,27.40
2018-09-26T13:43:22.679Z,26.50
2018-09-26T13:45:57.392Z,26.00
2018-09-26T13:48:31.803Z,26.10
2018-09-26T13:51:06.588Z,26.50
2018-09-26T13:53:41.082Z,27.20
2018-09-26T13:56:15.689Z,26.60
2018-09-26T13:58:50.517Z,26.00
2018-09-26T14:01:24.875Z,26.00
2018-09-26T14:03:59.812Z,25.60
2018-09-26T14:06:34.435Z,25.70
2018-09-26T14:09:09.024Z,26.30
2018-09-26T14:11:43.419Z,27.20
2018-09-26T14:14:17.984Z,27.90
2018-09-26T14:16:52.331Z,27.50
2018-09-26T14:19:29.308Z,27.10
2018-09-26T14:22:04.714Z,26.60
2018-09-26T14:24:39.930Z,26.80
2018-09-26T14:27:15.423Z,25.80
2018-09-26T14:29:50.879Z,26.30
2018-09-26T14:32:25.677Z,27.00
2018-09-26T14:35:00.235Z,27.20
2018-09-26T14:37:34.638Z,27.20
2018-09-26T14:40:09.948Z,26.70
2018-09-26T14:42:44.608Z,26.90
2018-09-26T14:45:19.466Z,26.60
2018-09-26T14:47:54.122Z,26.80
2018-09-26T14:50:28.702Z,26.60
2018-09-26T14:53:03.439Z,26.40
2018-09-26T14:55:37.994Z,25.80
2018-09-26T14:58:13.071Z,24.80
2018-09-26T15:00:47.596Z,24.40
2018-09-26T15:03:22.323Z,24.30
2018-09-26T15:05:57.138Z,24.60
2018-09-26T15:08:31.844Z,24.80
2018-09-26T15:11:06.787Z,24.50
2018-09-26T15:13:41.190Z,24.00
2018-09-26T15:16:16.738Z,23.90
2018-09-26T15:18:51.561Z,23.50
2018-09-26T15:21:26.039Z,23.00
2018-09-26T15:24:00.576Z,22.20
2018-09-26T15:26:35.035Z,21.60
2018-09-26T15:29:09.584Z,21.50
2018-09-26T15:31:44.037Z,21.80
2018-09-26T15:34:18.892Z,22.10
2018-09-26T15:36:53.354Z,22.10
2018-09-26T15:39:28.016Z,21.50
2018-09-26T15:42:02.654Z,21.70
2018-09-26T15:44:37.505Z,21.80
2018-09-26T15:47:12.069Z,22.00
2018-09-26T15:49:46.758Z,22.40
2018-09-26T15:52:21.455Z,22.60
2018-09-26T15:54:55.913Z,22.90
2018-09-26T15:57:30.592Z,22.60
2018-09-26T16:00:05.399Z,22.60
2018-09-26T16:02:40.102Z,22.60
2018-09-26T16:05:16.617Z,22.10
2018-09-26T16:07:51.872Z,21.80
2018-09-26T16:10:27.467Z,22.00
2018-09-26T16:13:02.321Z,22.20
2018-09-26T16:15:38.139Z,22.40
2018-09-26T16:18:13.863Z,22.30
2018-09-26T16:20:51.043Z,22.30
2018-09-26T16:23:26.645Z,22.40
2018-09-26T16:26:01.384Z,22.20
2018-09-26T16:28:35.898Z,22.00
2018-09-26T16:31:10.322Z,21.90
2018-09-26T16:33:44.941Z,21.40
2018-09-26T16:36:20.500Z,20.90
2018-09-26T16:38:54.790Z,20.90
2018-09-26T16:41:29.325Z,20.90
2018-09-26T16:44:04.642Z,20.40
2018-09-26T16:46:39.627Z,20.20
2018-09-26T16:49:14.224Z,20.00
2018-09-26T16:51:48.610Z,19.70
2018-09-26T16:54:23.201Z,19.30
2018-09-26T16:56:57.476Z,18.90
2018-09-26T16:59:31.920Z,18.70
2018-09-26T17:02:06.647Z,18.30
2018-09-26T17:04:41.063Z,17.70
2018-09-26T17:07:15.580Z,17.30
2018-09-26T17:09:50.118Z,17.10
2018-09-26T17:12:29.461Z,16.90
2018-09-26T17:15:03.944Z,16.60
2018-09-26T17:17:38.503Z,16.40
2018-09-26T17:20:13.024Z,16.10
2018-09-26T17:22:47.832Z,15.90
2018-09-26T17:25:22.405Z,15.70
2018-09-26T17:27:56.843Z,15.50
2018-09-26T17:30:31.464Z,15.30
2018-09-26T17:33:05.916Z,15.00
2018-09-26T17:35:40.511Z,14.70
2018-09-26T17:38:15.227Z,14.60
2018-09-26T17:40:49.815Z,14.30
2018-09-26T17:43:24.553Z,14.10
2018-09-26T17:45:58.821Z,13.90
2018-09-26T17:48:33.261Z,13.80
2018-09-26T17:51:07.897Z,13.70
2018-09-26T17:53:42.128Z,13.60
2018-09-26T17:56:16.688Z,13.50
2018-09-26T17:58:51.203Z,13.50
2018-09-26T18:01:27.681Z,13.50
2018-09-26T18:04:01.981Z,13.40
2018-09-26T18:06:36.748Z,13.30
2018-09-26T18:09:11.815Z,13.20
2018-09-26T18:11:46.257Z,13.00
2018-09-26T18:14:20.770Z,12.90
2018-09-26T18:16:55.356Z,12.70
2018-09-26T18:19:30.100Z,12.60
2018-09-26T18:22:04.657Z,12.60
2018-09-26T18:24:39.225Z,12.50
2018-09-26T18:27:13.907Z,12.40
2018-09-26T18:29:48.535Z,12.30
2018-09-26T18:32:23.078Z,12.20
2018-09-26T18:34:57.720Z,12.00
2018-09-26T18:37:32.360Z,11.80
2018-09-26T18:40:07.219Z,11.70
2018-09-26T18:42:41.826Z,11.60
2018-09-26T18:45:16.569Z,11.50
2018-09-26T18:47:51.494Z,11.40
2018-09-26T18:50:26.019Z,11.20
2018-09-26T18:53:00.474Z,11.10
2018-09-26T18:55:35.059Z,11.10
2018-09-26T18:58:09.540Z,11.10
2018-09-26T19:00:44.818Z,11.10
2018-09-26T19:03:19.496Z,10.90
2018-09-26T19:05:54.136Z,10.80
2018-09-26T19:08:28.478Z,10.60
2018-09-26T19:11:03.095Z,10.60
2018-09-26T19:13:38.385Z,10.50
2018-09-26T19:16:13.007Z,10.30
2018-09-26T19:18:47.440Z,10.30
2018-09-26T19:21:21.988Z,10.30
2018-09-26T19:23:56.535Z,10.20
2018-09-26T19:26:31.353Z,10.10
2018-09-26T19:29:05.900Z,10.10
2018-09-26T19:31:40.342Z,10.00
2018-09-26T19:34:15.072Z,9.80
2018-09-26T19:36:49.724Z,9.70
2018-09-26T19:39:24.444Z,9.60
2018-09-26T19:41:59.081Z,9.50
2018-09-26T19:44:33.430Z,9.40
2018-09-26T19:47:08.030Z,9.40
2018-09-26T19:49:42.418Z,9.40
2018-09-26T19:52:17.658Z,9.30
2018-09-26T19:54:52.056Z,9.20
2018-09-26T19:57:26.404Z,9.20
2018-09-26T20:00:00.659Z,9.20
2018-09-26T20:02:35.113Z,9.10
2018-09-26T20:05:09.734Z,9.10
2018-09-26T20:07:44.179Z,9.10
2018-09-26T20:10:18.869Z,9.10
2018-09-26T20:12:53.269Z,8.90
2018-09-26T20:15:27.708Z,8.80
2018-09-26T20:18:02.267Z,8.80
2018-09-26T20:20:36.772Z,8.70
2018-09-26T20:23:11.288Z,8.70
2018-09-26T20:25:45.699Z,8.70
2018-09-26T20:28:20.537Z,8.60
2018-09-26T20:30:55.137Z,8.60
2018-09-26T20:33:29.609Z,8.50
2018-09-26T20:36:04.472Z,8.40
2018-09-26T20:38:38.906Z,8.30
2018-09-26T20:41:13.508Z,8.30
2018-09-26T20:43:47.933Z,8.30
2018-09-26T20:46:22.638Z,8.20
2018-09-26T20:48:57.619Z,8.30
2018-09-26T20:51:32.349Z,8.30
2018-09-26T20:54:07.007Z,8.30
2018-09-26T20:56:41.673Z,8.20
2018-09-26T20:59:16.451Z,8.20
2018-09-26T21:01:50.964Z,8.10
2018-09-26T21:04:25.724Z,8.10
2018-09-26T21:07:00.237Z,8.10
2018-09-26T21:09:34.615Z,8.00
2018-09-26T21:12:09.115Z,7.90
2018-09-26T21:14:43.922Z,7.90
2018-09-26T21:17:18.868Z,7.80
2018-09-26T21:19:53.249Z,7.80
2018-09-26T21:22:27.763Z,7.90
2018-09-26T21:25:02.274Z,7.80
2018-09-26T21:27:36.780Z,7.70
2018-09-26T21:30:11.332Z,7.60
2018-09-26T21:32:45.988Z,7.70
2018-09-26T21:35:20.638Z,7.70
2018-09-26T21:37:55.030Z,7.70
2018-09-26T21:40:29.611Z,7.60
2018-09-26T21:43:04.495Z,7.60
2018-09-26T21:45:38.914Z,7.50
2018-09-26T21:48:13.305Z,7.40
2018-09-26T21:50:47.798Z,7.30
2018-09-26T21:53:22.432Z,7.30
2018-09-26T21:55:56.725Z,7.40
2018-09-26T21:58:31.136Z,7.40
2018-09-26T22:01:10.062Z,7.40
2018-09-26T22:03:44.697Z,7.30
2018-09-26T22:06:19.374Z,7.30
2018-09-26T22:08:53.861Z,7.20
2018-09-26T22:11:28.772Z,7.20
2018-09-26T22:14:03.328Z,7.10
2018-09-26T22:16:38.377Z,7.00
2018-09-26T22:19:12.902Z,7.00
2018-09-26T22:21:47.349Z,7.10
2018-09-26T22:24:22.025Z,7.10
2018-09-26T22:26:56.681Z,7.10
2018-09-26T22:29:31.205Z,7.10
2018-09-26T22:32:06.298Z,7.10
2018-09-26T22:34:40.958Z,7.10
2018-09-26T22:37:15.423Z,7.00
2018-09-26T22:39:49.976Z,6.90
2018-09-26T22:42:24.438Z,6.90
2018-09-26T22:44:59.090Z,6.90
2018-09-26T22:47:33.551Z,6.90
2018-09-26T22:50:07.963Z,6.80
2018-09-26T22:52:42.626Z,6.80
2018-09-26T22:55:17.309Z,6.80
2018-09-26T22:57:51.945Z,6.70
2018-09-26T23:00:26.515Z,6.70
2018-09-26T23:03:01.006Z,6.60
2018-09-26T23:05:35.454Z,6.50
2018-09-26T23:08:09.974Z,6.50
2018-09-26T23:10:44.702Z,6.50
2018-09-26T23:13:19.587Z,6.50
2018-09-26T23:15:54.134Z,6.40
2018-09-26T23:18:28.638Z,6.40
2018-09-26T23:21:03.166Z,6.50
2018-09-26T23:23:37.958Z,6.40
2018-09-26T23:26:12.386Z,6.40
2018-09-26T23:28:46.834Z,6.40
2018-09-26T23:31:21.213Z,6.30
2018-09-26T23:33:55.731Z,6.30
2018-09-26T23:36:30.057Z,6.30
2018-09-26T23:39:06.339Z,6.30
2018-09-26T23:41:40.819Z,6.30
2018-09-26T23:44:15.510Z,6.30
2018-09-26T23:46:49.996Z,6.30
2018-09-26T23:49:24.442Z,6.30
2018-09-26T23:51:59.499Z,6.10
2018-09-26T23:54:34.225Z,6.10
2018-09-26T23:57:08.534Z,6.10
2018-09-26T23:59:43.239Z,6.10
